createdAt,value
2023-05-17T00:02:51.557Z,0.65
2023-05-17T00:06:13.977Z,0.70
2023-05-17T00:09:36.476Z,0.88
2023-05-17T00:12:58.706Z,0.70
2023-05-17T00:16:21.037Z,0.82
2023-05-17T00:19:43.307Z,0.50
2023-05-17T00:23:05.625Z,0.80
2023-05-17T00:26:28.064Z,0.43
2023-05-17T00:29:50.335Z,0.77
2023-05-17T00:33:12.876Z,0.52
2023-05-17T00:36:35.485Z,0.55
2023-05-17T00:39:57.773Z,0.90
2023-05-17T00:43:20.131Z,0.75
2023-05-17T00:46:42.429Z,0.60
2023-05-17T00:50:06.337Z,0.80
2023-05-17T00:53:29.668Z,0.57
2023-05-17T00:56:53.320Z,0.80
2023-05-17T01:00:15.773Z,0.70
2023-05-17T01:03:38.729Z,0.60
2023-05-17T01:07:01.140Z,0.50
2023-05-17T01:10:39.145Z,0.70
2023-05-17T01:14:22.506Z,0.43
2023-05-17T01:17:59.648Z,0.80
2023-05-17T01:21:51.039Z,0.43
2023-05-17T01:25:38.169Z,0.50
2023-05-17T01:29:02.383Z,0.65
2023-05-17T01:32:26.221Z,0.57
2023-05-17T01:35:48.605Z,0.52
2023-05-17T01:39:11.088Z,0.50
2023-05-17T01:42:33.835Z,0.65
2023-05-17T01:45:56.170Z,0.40
2023-05-17T01:49:23.952Z,0.60
2023-05-17T01:52:51.929Z,0.50
2023-05-17T01:56:21.404Z,0.40
2023-05-17T01:59:45.594Z,0.40
2023-05-17T02:03:07.914Z,0.60
2023-05-17T02:06:30.871Z,0.43
2023-05-17T02:09:53.296Z,0.52
2023-05-17T02:13:15.997Z,0.50
2023-05-17T02:16:39.494Z,0.30
2023-05-17T02:20:01.934Z,0.50
2023-05-17T02:23:25.177Z,0.40
2023-05-17T02:26:48.727Z,0.50
2023-05-17T02:30:11.684Z,0.40
2023-05-17T02:33:34.123Z,0.50
2023-05-17T02:36:56.462Z,0.47
2023-05-17T02:40:18.833Z,0.40
2023-05-17T02:43:41.175Z,0.40
2023-05-17T02:47:03.601Z,0.43
2023-05-17T02:50:25.961Z,0.50
2023-05-17T02:53:48.292Z,0.32
2023-05-17T02:57:10.955Z,0.40
2023-05-17T03:00:33.318Z,0.47
2023-05-17T03:03:55.741Z,0.35
2023-05-17T03:07:18.279Z,0.30
2023-05-17T03:10:40.547Z,0.47
2023-05-17T03:14:04.034Z,0.47
2023-05-17T03:17:27.287Z,0.20
2023-05-17T03:20:49.791Z,0.40
2023-05-17T03:24:13.116Z,0.45
2023-05-17T03:27:36.496Z,0.40
2023-05-17T03:30:58.954Z,0.52
2023-05-17T03:34:24.954Z,0.47
2023-05-17T03:37:47.476Z,0.45
2023-05-17T03:41:10.610Z,0.30
2023-05-17T03:44:33.044Z,0.40
2023-05-17T03:47:55.357Z,0.30
2023-05-17T03:51:18.746Z,0.50
2023-05-17T03:54:41.025Z,0.35
2023-05-17T03:58:03.845Z,0.82
2023-05-17T04:01:26.252Z,0.40
2023-05-17T04:04:53.269Z,0.25
2023-05-17T04:08:16.692Z,0.30
2023-05-17T04:11:40.501Z,0.40
2023-05-17T04:15:03.702Z,0.35
2023-05-17T04:18:26.245Z,0.45
2023-05-17T04:21:52.078Z,0.40
2023-05-17T04:25:17.178Z,0.47
2023-05-17T04:28:39.521Z,0.40
2023-05-17T04:32:02.305Z,0.57
2023-05-17T04:35:24.581Z,0.50
2023-05-17T04:38:49.647Z,0.32
2023-05-17T04:42:16.472Z,0.80
2023-05-17T04:45:44.834Z,0.40
2023-05-17T04:49:07.591Z,0.50
2023-05-17T04:52:30.306Z,0.60
2023-05-17T04:55:52.825Z,0.40
2023-05-17T04:59:15.742Z,0.30
2023-05-17T05:02:38.893Z,0.38
2023-05-17T05:06:02.090Z,0.40
2023-05-17T05:09:24.403Z,0.30
2023-05-17T05:12:46.851Z,0.47
2023-05-17T05:16:09.816Z,0.30
2023-05-17T05:19:32.928Z,0.50
2023-05-17T05:22:58.497Z,0.55
2023-05-17T05:26:22.000Z,0.30
2023-05-17T05:29:46.545Z,0.43
2023-05-17T05:33:10.247Z,0.30
2023-05-17T05:36:32.933Z,0.40
2023-05-17T05:39:56.770Z,0.60
2023-05-17T05:43:19.076Z,0.50
2023-05-17T05:46:41.536Z,0.40
2023-05-17T05:50:06.018Z,0.40
2023-05-17T05:53:28.370Z,0.77
2023-05-17T05:56:51.579Z,0.70
2023-05-17T06:00:16.074Z,0.70
2023-05-17T06:03:38.473Z,0.30
2023-05-17T06:07:00.873Z,0.57
2023-05-17T06:10:24.517Z,0.60
2023-05-17T06:13:47.405Z,0.60
2023-05-17T06:17:09.696Z,0.75
2023-05-17T06:20:32.200Z,0.63
2023-05-17T06:23:54.765Z,0.68
2023-05-17T06:27:17.053Z,0.60
2023-05-17T06:30:39.398Z,0.55
2023-05-17T06:34:01.862Z,0.50
2023-05-17T06:37:24.801Z,0.63
2023-05-17T06:40:47.066Z,0.88
2023-05-17T06:44:09.349Z,0.60
2023-05-17T06:47:31.650Z,0.77
2023-05-17T06:50:54.013Z,0.85
2023-05-17T06:54:16.314Z,0.85
2023-05-17T06:57:38.650Z,0.50
2023-05-17T07:01:00.969Z,0.70
2023-05-17T07:04:23.605Z,1.05
2023-05-17T07:07:46.091Z,0.60
2023-05-17T07:11:08.383Z,0.73
2023-05-17T07:14:30.767Z,0.68
2023-05-17T07:17:53.153Z,0.98
2023-05-17T07:21:15.493Z,0.60
2023-05-17T07:24:38.862Z,0.50
2023-05-17T07:28:01.128Z,0.70
2023-05-17T07:31:23.379Z,0.50
2023-05-17T07:34:47.438Z,0.60
2023-05-17T07:38:10.862Z,1.15
2023-05-17T07:41:34.153Z,0.75
2023-05-17T07:44:56.465Z,0.85
2023-05-17T07:48:18.864Z,0.70
2023-05-17T07:51:41.300Z,0.60
2023-05-17T07:55:05.873Z,0.50
2023-05-17T07:58:28.222Z,0.45
2023-05-17T08:01:51.031Z,0.68
2023-05-17T08:05:13.281Z,0.50
2023-05-17T08:08:35.625Z,0.73
2023-05-17T08:11:57.924Z,0.80
2023-05-17T08:15:20.352Z,0.68
2023-05-17T08:18:43.788Z,0.70
2023-05-17T08:22:06.628Z,0.60
2023-05-17T08:25:29.261Z,0.80
2023-05-17T08:28:51.784Z,0.60
2023-05-17T08:32:14.089Z,0.85
2023-05-17T08:35:36.973Z,0.88
2023-05-17T08:38:59.504Z,0.73
2023-05-17T08:42:27.734Z,1.20
2023-05-17T08:45:54.222Z,0.60
2023-05-17T08:49:17.089Z,0.77
2023-05-17T08:52:40.773Z,1.05
2023-05-17T08:56:04.892Z,0.50
2023-05-17T08:59:33.598Z,0.68
2023-05-17T09:02:55.981Z,0.80
2023-05-17T09:06:21.621Z,0.80
2023-05-17T09:09:43.968Z,0.60
2023-05-17T09:13:07.162Z,1.05
2023-05-17T09:16:37.290Z,0.80
2023-05-17T09:20:00.695Z,0.85
2023-05-17T09:23:23.361Z,0.82
2023-05-17T09:26:46.328Z,1.02
2023-05-17T09:30:10.930Z,0.80
2023-05-17T09:33:33.414Z,0.68
2023-05-17T09:36:55.793Z,0.70
2023-05-17T09:40:25.626Z,1.00
2023-05-17T09:43:48.554Z,0.80
2023-05-17T09:47:11.076Z,0.73
2023-05-17T09:50:33.460Z,1.00
2023-05-17T09:53:58.117Z,0.68
2023-05-17T09:57:21.484Z,1.20
2023-05-17T10:00:44.296Z,0.93
2023-05-17T10:04:09.841Z,0.80
2023-05-17T10:07:32.786Z,1.08
2023-05-17T10:11:09.122Z,1.27
2023-05-17T10:14:32.455Z,1.50
2023-05-17T10:17:55.288Z,0.80
2023-05-17T10:21:18.069Z,1.15
2023-05-17T10:24:41.784Z,0.95
2023-05-17T10:28:07.583Z,1.33
2023-05-17T10:31:30.955Z,1.27
2023-05-17T10:35:09.218Z,0.85
2023-05-17T10:38:41.721Z,0.85
2023-05-17T10:42:14.698Z,1.10
2023-05-17T10:45:38.184Z,1.48
2023-05-17T10:49:01.523Z,1.00
2023-05-17T10:52:25.099Z,1.25
2023-05-17T10:55:47.460Z,1.27
2023-05-17T10:59:23.268Z,1.10
2023-05-17T11:02:47.790Z,1.05
2023-05-17T11:06:24.403Z,1.75
2023-05-17T11:10:10.893Z,1.85
2023-05-17T11:13:33.281Z,1.42
2023-05-17T11:16:58.341Z,1.70
2023-05-17T11:20:27.384Z,1.58
2023-05-17T11:23:58.375Z,1.48
2023-05-17T11:27:27.185Z,1.50
2023-05-17T11:30:53.698Z,1.50
2023-05-17T11:34:18.722Z,1.50
2023-05-17T11:41:26.863Z,1.50
2023-05-17T11:44:50.555Z,1.50
2023-05-17T11:48:13.899Z,1.30
2023-05-17T11:51:36.796Z,1.30
2023-05-17T11:54:59.628Z,1.50
2023-05-17T11:58:26.835Z,1.30
2023-05-17T12:01:51.119Z,1.50
2023-05-17T12:05:20.438Z,1.60
2023-05-17T12:08:46.827Z,1.50
2023-05-17T12:12:09.713Z,1.45
2023-05-17T12:15:32.403Z,1.40
2023-05-17T12:18:54.907Z,1.30
2023-05-17T12:22:17.737Z,1.50
2023-05-17T12:25:40.214Z,1.42
2023-05-17T12:29:02.511Z,1.40
2023-05-17T12:32:25.568Z,1.10
2023-05-17T12:35:47.951Z,1.30
2023-05-17T12:39:12.211Z,1.40
2023-05-17T12:42:34.550Z,1.40
2023-05-17T12:46:09.284Z,1.35
2023-05-17T12:49:37.446Z,1.40
2023-05-17T12:52:59.840Z,1.40
2023-05-17T12:56:30.100Z,1.58
2023-05-17T12:59:53.143Z,1.25
2023-05-17T13:03:15.607Z,2.13
2023-05-17T13:07:00.149Z,1.98
2023-05-17T13:10:27.623Z,1.70
2023-05-17T13:13:50.147Z,1.58
2023-05-17T13:17:24.172Z,1.80
2023-05-17T13:20:46.595Z,1.50
2023-05-17T13:24:12.125Z,1.88
2023-05-17T13:27:34.380Z,1.70
2023-05-17T13:30:56.972Z,1.70
2023-05-17T13:34:21.148Z,1.30
2023-05-17T13:37:43.539Z,1.43
2023-05-17T13:41:07.714Z,1.40
2023-05-17T13:44:30.086Z,1.67
2023-05-17T13:47:52.463Z,1.30
2023-05-17T13:51:14.875Z,1.30
2023-05-17T13:54:37.903Z,1.58
2023-05-17T13:58:00.121Z,1.40
2023-05-17T14:01:22.715Z,1.38
2023-05-17T14:04:44.948Z,1.27
2023-05-17T14:08:08.897Z,1.30
2023-05-17T14:11:31.174Z,1.38
2023-05-17T14:14:53.509Z,1.58
2023-05-17T14:18:15.835Z,1.33
2023-05-17T14:21:38.250Z,1.40
2023-05-17T14:25:00.700Z,1.25
2023-05-17T14:28:22.991Z,1.60
2023-05-17T14:31:45.322Z,1.75
2023-05-17T14:35:08.534Z,1.10
2023-05-17T14:38:33.631Z,1.60
2023-05-17T14:41:56.429Z,1.30
2023-05-17T14:45:19.157Z,1.38
2023-05-17T14:48:42.045Z,1.20
2023-05-17T14:52:04.563Z,1.33
2023-05-17T14:55:27.171Z,1.30
2023-05-17T14:58:49.826Z,1.38
2023-05-17T15:02:12.156Z,1.33
2023-05-17T15:05:34.543Z,1.45
2023-05-17T15:08:57.521Z,1.50
2023-05-17T15:12:19.858Z,1.65
2023-05-17T15:15:43.553Z,1.45
2023-05-17T15:19:06.590Z,1.30
2023-05-17T15:22:29.317Z,1.60
2023-05-17T15:25:51.619Z,1.50
2023-05-17T15:29:13.999Z,1.23
2023-05-17T15:32:36.541Z,1.02
2023-05-17T15:35:59.104Z,1.20
2023-05-17T15:39:21.857Z,1.67
2023-05-17T15:42:44.173Z,1.42
2023-05-17T15:46:06.476Z,1.50
2023-05-17T15:49:28.857Z,1.10
2023-05-17T15:52:51.255Z,1.52
2023-05-17T15:56:14.142Z,1.58
2023-05-17T15:59:36.407Z,1.67
2023-05-17T16:02:59.869Z,1.65
2023-05-17T16:06:22.322Z,1.58
2023-05-17T16:09:44.671Z,1.67
2023-05-17T16:13:07.070Z,1.58
2023-05-17T16:16:29.642Z,2.00
2023-05-17T16:19:52.132Z,1.63
2023-05-17T16:23:14.504Z,1.77
2023-05-17T16:26:38.532Z,2.03
2023-05-17T16:30:00.926Z,1.52
2023-05-17T16:33:23.292Z,1.70
2023-05-17T16:36:47.872Z,1.88
2023-05-17T16:40:10.909Z,1.60
2023-05-17T16:43:33.389Z,1.70
2023-05-17T16:46:55.802Z,1.58
2023-05-17T16:50:18.198Z,1.73
2023-05-17T16:53:40.437Z,1.80
2023-05-17T16:57:06.588Z,1.70
2023-05-17T17:00:30.816Z,1.80
2023-05-17T17:03:53.649Z,2.13
2023-05-17T17:07:16.130Z,2.15
2023-05-17T17:10:38.452Z,1.85
2023-05-17T17:14:00.818Z,2.03
2023-05-17T17:17:23.119Z,2.17
2023-05-17T17:20:45.450Z,2.10
2023-05-17T17:24:08.176Z,2.08
2023-05-17T17:27:30.705Z,2.00
2023-05-17T17:30:53.142Z,2.08
2023-05-17T17:34:15.411Z,2.15
2023-05-17T17:37:40.333Z,1.90
2023-05-17T17:41:02.643Z,2.67
2023-05-17T17:44:25.161Z,3.58
2023-05-17T17:47:47.498Z,4.65
2023-05-17T17:51:09.905Z,8.27
2023-05-17T17:54:32.222Z,8.35
2023-05-17T17:57:54.622Z,9.52
2023-05-17T18:01:17.015Z,10.50
2023-05-17T18:04:40.607Z,11.52
2023-05-17T18:08:03.009Z,10.93
2023-05-17T18:11:26.134Z,11.60
2023-05-17T18:14:48.432Z,11.63
2023-05-17T18:18:11.137Z,10.52
2023-05-17T18:21:33.552Z,8.57
2023-05-17T18:24:55.903Z,9.57
2023-05-17T18:28:21.636Z,9.50
2023-05-17T18:31:52.203Z,10.20
2023-05-17T18:35:14.545Z,8.70
2023-05-17T18:38:36.851Z,8.15
2023-05-17T18:41:59.434Z,8.20
2023-05-17T18:45:22.004Z,7.57
2023-05-17T18:48:44.286Z,5.60
2023-05-17T18:52:06.773Z,5.75
2023-05-17T18:55:29.100Z,5.28
2023-05-17T18:58:52.966Z,4.10
2023-05-17T19:02:15.288Z,5.28
2023-05-17T19:05:37.551Z,5.10
2023-05-17T19:08:59.895Z,5.72
2023-05-17T19:12:22.176Z,4.32
2023-05-17T19:15:44.444Z,3.38
2023-05-17T19:19:07.936Z,2.78
2023-05-17T19:22:30.599Z,3.00
2023-05-17T19:25:55.278Z,3.35
2023-05-17T19:29:17.664Z,2.67
2023-05-17T19:32:40.015Z,2.45
2023-05-17T19:36:02.872Z,2.67
2023-05-17T19:39:25.582Z,2.78
2023-05-17T19:42:48.507Z,3.00
2023-05-17T19:46:12.184Z,2.63
2023-05-17T19:49:34.627Z,3.20
2023-05-17T19:52:56.963Z,3.08
2023-05-17T19:56:19.324Z,3.17
2023-05-17T19:59:41.969Z,3.13
2023-05-17T20:03:05.143Z,2.88
2023-05-17T20:06:27.534Z,2.95
2023-05-17T20:09:50.174Z,2.50
2023-05-17T20:13:12.713Z,2.53
2023-05-17T20:16:35.288Z,2.78
2023-05-17T20:19:57.766Z,2.65
2023-05-17T20:23:20.056Z,3.20
2023-05-17T20:26:45.094Z,2.58
2023-05-17T20:33:30.292Z,2.33
2023-05-17T20:36:52.568Z,2.70
2023-05-17T20:40:14.929Z,2.30
2023-05-17T20:43:37.709Z,2.40
2023-05-17T20:47:00.120Z,2.25
2023-05-17T20:50:22.810Z,2.72
2023-05-17T20:53:46.525Z,2.70
2023-05-17T20:57:08.990Z,2.40
2023-05-17T21:00:31.635Z,2.30
2023-05-17T21:03:54.386Z,2.20
2023-05-17T21:07:17.483Z,2.40
2023-05-17T21:10:42.746Z,2.53
2023-05-17T21:14:05.070Z,2.20
2023-05-17T21:17:27.521Z,2.60
2023-05-17T21:20:53.449Z,2.30
2023-05-17T21:24:16.142Z,2.22
2023-05-17T21:27:38.533Z,2.30
2023-05-17T21:31:01.428Z,2.67
2023-05-17T21:34:23.721Z,2.38
2023-05-17T21:37:46.036Z,2.45
2023-05-17T21:41:08.300Z,2.60
2023-05-17T21:44:30.655Z,2.90
2023-05-17T21:47:53.137Z,1.90
2023-05-17T21:51:15.496Z,2.00
2023-05-17T21:54:37.953Z,2.03
2023-05-17T21:58:00.189Z,2.05
2023-05-17T22:01:24.260Z,2.17
2023-05-17T22:04:46.948Z,2.30
2023-05-17T22:08:09.247Z,2.05
2023-05-17T22:11:31.526Z,2.40
2023-05-17T22:14:55.938Z,2.10
2023-05-17T22:18:19.427Z,2.42
2023-05-17T22:21:42.178Z,2.10
2023-05-17T22:25:06.884Z,2.20
2023-05-17T22:28:29.200Z,1.95
2023-05-17T22:31:51.780Z,2.05
2023-05-17T22:35:14.143Z,2.00
2023-05-17T22:38:36.467Z,2.20
2023-05-17T22:41:58.762Z,2.40
2023-05-17T22:45:21.240Z,2.20
2023-05-17T22:48:43.599Z,2.25
2023-05-17T22:52:07.661Z,2.20
2023-05-17T22:55:30.123Z,2.20
2023-05-17T22:58:52.677Z,2.13
2023-05-17T23:02:14.968Z,2.17
2023-05-17T23:05:37.831Z,2.28
2023-05-17T23:09:02.610Z,2.15
2023-05-17T23:12:27.518Z,2.03
2023-05-17T23:15:51.035Z,2.38
2023-05-17T23:19:13.716Z,2.30
2023-05-17T23:22:36.891Z,2.28
2023-05-17T23:25:59.271Z,2.03
2023-05-17T23:29:22.122Z,1.90
2023-05-17T23:32:46.784Z,2.25
2023-05-17T23:36:09.190Z,2.10
2023-05-17T23:39:31.601Z,2.25
2023-05-17T23:42:53.953Z,2.40
2023-05-17T23:46:19.670Z,1.98
2023-05-17T23:49:42.192Z,2.20
2023-05-17T23:53:04.627Z,1.95
2023-05-17T23:56:27.030Z,2.10
2023-05-17T23:59:49.570Z,1.95
